Time;durP1;ratioP1;P1;durP2;ratioP2;P2;SDS_P1;SDS_P2;PMS_P1;PMS_P2;Temp;Humidity;BMP_temperature;BMP_pressure;BME280_temperature;BME280_humidity;BME280_pressure;Samples;Min_cycle;Max_cycle;Signal;HPM_P1;HPM_P2
2022/08/23 00:01:27;;;;;;;14.55;6.20;;;18.30;99.90;;;;;;5052602;28;20045;-67
2022/08/23 00:03:57;;;;;;;11.35;5.35;;;18.30;99.90;;;;;;5052741;28;20408;-68
2022/08/23 00:06:23;;;;;;;9.52;5.57;;;18.40;99.90;;;;;;5052152;28;20403;-67
2022/08/23 00:08:50;;;;;;;11.13;6.03;;;18.50;99.90;;;;;;5053184;28;20123;-67
2022/08/23 00:11:32;;;;;;;7.40;4.65;;;18.40;99.90;;;;;;5052964;28;20037;-67
2022/08/23 00:14:01;;;;;;;10.88;5.18;;;18.30;99.90;;;;;;5053332;28;20462;-67
2022/08/23 00:16:27;;;;;;;5.90;4.95;;;18.30;99.90;;;;;;5053161;28;20605;-67
2022/08/23 00:18:53;;;;;;;8.98;5.00;;;18.10;99.90;;;;;;5053248;28;20040;-68
2022/08/23 00:21:19;;;;;;;10.52;4.80;;;18.10;99.90;;;;;;5052944;28;20040;-68
2022/08/23 00:23:44;;;;;;;10.60;5.97;;;18.30;99.90;;;;;;5053220;28;20048;-67
2022/08/23 00:26:10;;;;;;;9.45;5.38;;;18.20;99.90;;;;;;5052808;28;20037;-68
2022/08/23 00:28:36;;;;;;;8.52;5.90;;;18.00;99.90;;;;;;5052953;28;20556;-67
2022/08/23 00:31:02;;;;;;;8.98;6.22;;;18.10;99.90;;;;;;5052623;28;20398;-67
2022/08/23 00:33:27;;;;;;;12.95;7.93;;;17.80;99.90;;;;;;5052960;28;20049;-67
2022/08/23 00:35:53;;;;;;;8.25;6.88;;;17.60;99.90;;;;;;5052963;28;20065;-67
2022/08/23 00:38:18;;;;;;;14.38;7.57;;;17.70;99.90;;;;;;5051635;28;20084;-68
2022/08/23 00:40:50;;;;;;;8.40;7.05;;;18.00;99.90;;;;;;5052495;28;20045;-68
2022/08/23 00:49:37;;;;;;;8.15;5.40;;;17.80;99.90;;;;;;4990274;28;20128;-67
2022/08/23 00:52:15;;;;;;;7.63;6.07;;;17.90;99.90;;;;;;5043486;28;20483;-67
2022/08/23 00:54:41;;;;;;;10.07;6.28;;;18.00;99.90;;;;;;5052226;28;20037;-67
2022/08/23 00:57:12;;;;;;;8.65;5.72;;;18.00;99.90;;;;;;5043982;28;20419;-67
2022/08/23 00:59:38;;;;;;;9.27;6.05;;;17.90;99.90;;;;;;5052149;28;20558;-68
2022/08/23 01:02:04;;;;;;;13.57;7.18;;;17.90;99.90;;;;;;5034909;28;20112;-67
2022/08/23 01:04:36;;;;;;;10.40;6.88;;;17.90;99.90;;;;;;5052573;28;20037;-68
2022/08/23 01:07:08;;;;;;;9.35;6.55;;;17.80;99.90;;;;;;5051374;28;20073;-68
2022/08/23 01:09:37;;;;;;;11.90;7.18;;;17.90;99.90;;;;;;5052035;28;20036;-68
2022/08/23 01:12:05;;;;;;;10.52;6.30;;;17.90;99.90;;;;;;5052243;28;20414;-67
2022/08/23 01:14:49;;;;;;;8.65;7.00;;;18.00;99.90;;;;;;5052093;28;20059;-67
2022/08/23 01:17:22;;;;;;;10.77;7.47;;;17.90;99.90;;;;;;5052158;28;20039;-67
2022/08/23 01:19:53;;;;;;;10.07;6.90;;;17.70;99.90;;;;;;5051893;28;20660;-67
2022/08/23 01:23:07;;;;;;;12.32;6.90;;;17.80;99.90;;;;;;5052055;28;20037;-67
2022/08/23 01:25:35;;;;;;;8.80;6.63;;;17.80;99.90;;;;;;4980717;28;20134;-68
2022/08/23 01:28:01;;;;;;;18.60;7.20;;;17.60;99.90;;;;;;5051852;28;20041;-68
2022/08/23 01:30:31;;;;;;;10.02;6.32;;;17.80;99.90;;;;;;5051674;28;20033;-67
2022/08/23 01:33:00;;;;;;;11.30;6.80;;;17.70;99.90;;;;;;5051968;28;20047;-67
2022/08/23 01:35:41;;;;;;;9.23;6.65;;;17.80;99.90;;;;;;5051774;28;20037;-67
2022/08/23 01:38:08;;;;;;;11.80;6.53;;;17.60;99.90;;;;;;5051663;28;20127;-67
2022/08/23 01:40:34;;;;;;;10.57;6.68;;;17.60;99.90;;;;;;5051574;28;20037;-67
2022/08/23 01:43:00;;;;;;;10.60;6.68;;;17.50;99.90;;;;;;5051711;28;20084;-68
2022/08/23 01:45:27;;;;;;;9.05;6.38;;;17.50;99.90;;;;;;5051668;28;20494;-67
2022/08/23 01:47:53;;;;;;;8.73;6.55;;;17.40;99.90;;;;;;5051482;28;20572;-67
2022/08/23 01:50:19;;;;;;;7.97;6.68;;;17.60;99.90;;;;;;5051443;28;20049;-67
2022/08/23 01:52:44;;;;;;;9.50;6.75;;;17.30;99.90;;;;;;5051701;28;20568;-67
2022/08/23 01:55:10;;;;;;;12.95;6.07;;;17.40;99.90;;;;;;5050326;28;20037;-67
2022/08/23 01:57:36;;;;;;;8.40;6.28;;;17.30;99.90;;;;;;5050082;28;20033;-67
2022/08/23 02:00:05;;;;;;;8.50;6.65;;;17.20;99.90;;;;;;5051200;28;20175;-67
2022/08/23 02:02:30;;;;;;;9.43;7.10;;;17.20;99.90;;;;;;5051720;28;20055;-68
2022/08/23 02:04:56;;;;;;;11.80;7.22;;;17.50;99.90;;;;;;5050239;28;20128;-68
2022/08/23 02:07:25;;;;;;;12.30;7.18;;;17.40;99.90;;;;;;5051549;28;20091;-67
2022/08/23 02:09:51;;;;;;;10.43;7.25;;;17.50;99.90;;;;;;5051262;28;20056;-67
2022/08/23 02:12:17;;;;;;;10.45;6.95;;;17.40;99.90;;;;;;5055611;28;20041;-67
2022/08/23 02:14:42;;;;;;;9.77;8.27;;;17.40;99.90;;;;;;5055447;28;20037;-67
2022/08/23 02:17:08;;;;;;;9.18;7.05;;;17.30;99.90;;;;;;5054184;28;20037;-67
2022/08/23 02:19:35;;;;;;;14.98;8.90;;;17.20;99.90;;;;;;5055244;28;20413;-68
2022/08/23 02:22:01;;;;;;;15.90;10.80;;;17.40;99.90;;;;;;5055409;28;20036;-68
2022/08/23 02:24:26;;;;;;;15.55;10.93;;;17.50;99.90;;;;;;5055397;28;20491;-68
2022/08/23 02:26:56;;;;;;;19.60;11.82;;;17.20;99.90;;;;;;5055155;28;20037;-67
2022/08/23 02:29:23;;;;;;;14.77;10.85;;;17.60;99.90;;;;;;5053612;28;20083;-67
2022/08/23 02:31:49;;;;;;;16.98;9.93;;;17.60;99.90;;;;;;5055382;28;20170;-67
2022/08/23 02:34:17;;;;;;;13.10;9.05;;;17.60;99.90;;;;;;5055468;28;20051;-67
2022/08/23 02:36:44;;;;;;;14.35;9.95;;;17.60;99.90;;;;;;5055148;28;20396;-67
2022/08/23 02:39:11;;;;;;;16.23;10.57;;;17.60;99.90;;;;;;5055119;28;20037;-68
2022/08/23 02:41:37;;;;;;;15.50;9.77;;;17.20;99.90;;;;;;5055034;28;20044;-67
2022/08/23 02:44:04;;;;;;;13.75;9.48;;;17.30;99.90;;;;;;5055031;28;20533;-67
2022/08/23 02:46:30;;;;;;;12.68;9.27;;;17.20;99.90;;;;;;5054803;28;20532;-67
2022/08/23 02:48:55;;;;;;;14.20;10.45;;;17.20;99.90;;;;;;5055103;28;20073;-67
2022/08/23 02:51:22;;;;;;;12.25;10.07;;;17.30;99.90;;;;;;5054640;28;20522;-68
2022/08/23 02:53:47;;;;;;;14.98;11.35;;;17.30;99.90;;;;;;5054854;28;20052;-67
2022/08/23 02:56:13;;;;;;;15.18;11.68;;;17.40;99.90;;;;;;5054714;28;20037;-67
2022/08/23 02:58:40;;;;;;;17.35;11.88;;;17.50;99.90;;;;;;5055023;28;20040;-67
2022/08/23 03:01:39;;;;;;;17.60;11.23;;;17.20;99.90;;;;;;5054385;28;20037;-67
2022/08/23 03:04:07;;;;;;;15.68;11.93;;;17.30;99.90;;;;;;5050778;28;20053;-67
2022/08/23 03:06:33;;;;;;;13.35;9.57;;;17.30;99.90;;;;;;5054607;28;20076;-67
2022/08/23 03:08:59;;;;;;;9.95;8.98;;;17.30;99.90;;;;;;5054509;28;20041;-67
2022/08/23 03:11:25;;;;;;;16.65;9.63;;;17.20;99.90;;;;;;5054372;28;20033;-68
2022/08/23 03:13:53;;;;;;;14.63;12.55;;;17.40;99.90;;;;;;5054671;28;20111;-68
2022/08/23 03:16:19;;;;;;;19.60;12.30;;;17.20;99.90;;;;;;5054603;28;20041;-68
2022/08/23 03:18:45;;;;;;;18.35;12.15;;;17.50;99.90;;;;;;5054399;28;20414;-68
2022/08/23 03:21:11;;;;;;;17.27;11.70;;;17.20;99.90;;;;;;5054090;28;20045;-68
2022/08/23 03:23:38;;;;;;;18.45;12.30;;;17.50;99.90;;;;;;5054273;28;20037;-67
2022/08/23 03:26:05;;;;;;;20.70;13.40;;;17.20;99.90;;;;;;5054394;28;20090;-68
2022/08/23 03:28:32;;;;;;;17.42;12.43;;;17.20;99.90;;;;;;5054390;28;20048;-67
2022/08/23 03:30:58;;;;;;;16.35;10.73;;;17.50;99.90;;;;;;5053905;28;20041;-67
2022/08/23 03:33:23;;;;;;;14.98;9.70;;;17.40;99.90;;;;;;5054093;28;20044;-67
2022/08/23 03:35:49;;;;;;;9.40;7.82;;;17.60;99.90;;;;;;5054019;28;20040;-67
2022/08/23 03:38:16;;;;;;;8.80;7.90;;;17.40;99.90;;;;;;5054005;28;20040;-67
2022/08/23 03:40:42;;;;;;;13.82;7.55;;;17.10;99.90;;;;;;5052642;28;20132;-67
2022/08/23 03:43:07;;;;;;;13.93;8.70;;;17.20;99.90;;;;;;5054011;28;20041;-67
2022/08/23 03:45:33;;;;;;;10.73;9.15;;;17.10;99.90;;;;;;5054087;28;20043;-67
2022/08/23 03:47:59;;;;;;;14.68;9.32;;;17.30;99.90;;;;;;5053819;28;20120;-68
2022/08/23 03:50:24;;;;;;;14.95;11.63;;;17.30;99.90;;;;;;5053459;28;20557;-68
2022/08/23 03:52:50;;;;;;;13.57;11.52;;;17.30;99.90;;;;;;5053666;28;20049;-68
2022/08/23 03:55:16;;;;;;;23.83;14.45;;;17.20;99.90;;;;;;5053882;28;20095;-68
2022/08/23 03:57:42;;;;;;;19.90;14.00;;;17.30;99.90;;;;;;5053951;28;20033;-68
2022/08/23 04:00:10;;;;;;;15.85;12.23;;;17.20;99.90;;;;;;5053396;28;20114;-68
2022/08/23 04:02:36;;;;;;;23.17;14.45;;;17.10;99.90;;;;;;5053433;28;20537;-67
2022/08/23 04:05:02;;;;;;;20.05;14.27;;;17.10;99.90;;;;;;5053565;28;20053;-67
2022/08/23 04:07:28;;;;;;;16.73;14.52;;;17.30;99.90;;;;;;5053351;28;20045;-68
2022/08/23 04:09:54;;;;;;;20.98;15.65;;;17.10;99.90;;;;;;5053260;28;20045;-68
2022/08/23 04:12:21;;;;;;;20.38;16.70;;;17.20;99.90;;;;;;5053601;28;20163;-67
2022/08/23 04:14:46;;;;;;;22.58;16.40;;;17.20;99.90;;;;;;5053458;28;20037;-67
2022/08/23 04:17:13;;;;;;;18.35;15.18;;;17.20;99.90;;;;;;5053293;28;20037;-67
2022/08/23 04:19:39;;;;;;;19.52;16.08;;;17.20;99.90;;;;;;5052920;28;20033;-67
2022/08/23 04:22:10;;;;;;;19.42;16.42;;;17.20;99.90;;;;;;5053153;28;20087;-68
2022/08/23 04:24:36;;;;;;;21.00;17.35;;;17.10;99.90;;;;;;5053233;28;20033;-68
2022/08/23 04:27:02;;;;;;;23.65;17.02;;;17.00;99.90;;;;;;5053195;28;20098;-67
2022/08/23 04:29:27;;;;;;;22.75;17.63;;;17.00;99.90;;;;;;5051582;28;20087;-67
2022/08/23 04:31:53;;;;;;;21.10;17.80;;;16.90;99.90;;;;;;5052624;28;20063;-67
2022/08/23 04:34:18;;;;;;;22.00;16.75;;;16.80;99.90;;;;;;5052459;28;20045;-67
2022/08/23 04:36:44;;;;;;;21.40;17.77;;;17.10;99.90;;;;;;5052792;28;20527;-67
2022/08/23 04:39:10;;;;;;;22.55;17.70;;;17.20;99.90;;;;;;5052739;28;20041;-68
2022/08/23 04:44:20;;;;;;;23.95;19.70;;;17.10;99.90;;;;;;5051900;28;20051;-68
2022/08/23 04:46:47;;;;;;;24.27;19.23;;;17.00;99.90;;;;;;5052047;28;20124;-67
2022/08/23 04:49:13;;;;;;;26.10;19.27;;;17.20;99.90;;;;;;5052433;28;20040;-67
2022/08/23 04:51:39;;;;;;;25.40;18.92;;;16.90;99.90;;;;;;5052643;28;20045;-67
2022/08/23 04:54:06;;;;;;;29.48;21.30;;;17.10;99.90;;;;;;5052497;28;20590;-67
2022/08/23 04:56:32;;;;;;;25.33;19.35;;;17.10;99.90;;;;;;5052623;28;20037;-67
2022/08/23 04:58:58;;;;;;;23.52;18.67;;;16.90;99.90;;;;;;5052157;28;20041;-67
2022/08/23 05:01:24;;;;;;;25.48;19.17;;;17.10;99.90;;;;;;5051397;28;20411;-67
2022/08/23 05:03:51;;;;;;;25.30;20.50;;;17.10;99.90;;;;;;5051896;28;20045;-67
2022/08/23 05:06:16;;;;;;;23.55;18.58;;;17.10;99.90;;;;;;5049534;28;20037;-67
2022/08/23 05:08:42;;;;;;;22.10;18.02;;;17.20;99.90;;;;;;5050089;28;20099;-67
2022/08/23 05:11:08;;;;;;;25.40;18.73;;;17.20;99.90;;;;;;5051884;28;20037;-67
2022/08/23 05:13:35;;;;;;;25.00;19.10;;;17.50;99.90;;;;;;5052239;28;20128;-67
2022/08/23 05:16:01;;;;;;;23.33;19.20;;;17.40;99.90;;;;;;5052146;28;20047;-67
2022/08/23 05:18:26;;;;;;;20.45;17.83;;;17.60;99.90;;;;;;5052415;28;20056;-67
2022/08/23 05:20:52;;;;;;;20.88;18.17;;;17.70;99.90;;;;;;5051770;28;20509;-67
2022/08/23 05:23:18;;;;;;;25.35;19.95;;;17.90;99.90;;;;;;5052172;28;20049;-67
2022/08/23 05:25:51;;;;;;;25.33;17.15;;;17.90;99.90;;;;;;5051549;28;20231;-67
2022/08/23 05:28:22;;;;;;;22.20;18.08;;;18.10;99.90;;;;;;5051598;28;20041;-67
2022/08/23 05:31:04;;;;;;;21.48;18.27;;;18.20;99.90;;;;;;5050469;28;20090;-67
2022/08/23 05:33:32;;;;;;;21.73;17.17;;;18.20;99.90;;;;;;5049926;28;20039;-67
2022/08/23 05:35:58;;;;;;;23.10;16.95;;;18.20;99.90;;;;;;5051356;28;20036;-67
2022/08/23 05:38:25;;;;;;;19.00;15.80;;;18.20;99.90;;;;;;5051763;28;20033;-67
2022/08/23 05:40:52;;;;;;;23.52;15.98;;;18.10;99.90;;;;;;5051556;28;20041;-67
2022/08/23 05:43:19;;;;;;;17.52;15.68;;;18.50;99.90;;;;;;5051582;28;20142;-67
2022/08/23 05:45:44;;;;;;;16.55;14.85;;;18.50;99.90;;;;;;5050906;28;20411;-66
2022/08/23 05:48:11;;;;;;;19.48;14.85;;;18.50;99.90;;;;;;5051534;28;20045;-67
2022/08/23 05:50:37;;;;;;;18.70;14.10;;;18.70;99.90;;;;;;5051429;28;20045;-67
2022/08/23 05:53:04;;;;;;;18.33;14.73;;;19.00;99.90;;;;;;5051584;28;20502;-67
2022/08/23 05:55:29;;;;;;;21.60;15.85;;;19.10;99.90;;;;;;5051556;28;20048;-67
2022/08/23 05:57:55;;;;;;;17.85;16.02;;;19.10;99.90;;;;;;5051587;28;20044;-67
2022/08/23 06:00:21;;;;;;;18.75;14.77;;;18.90;99.90;;;;;;5051386;28;20048;-67
2022/08/23 06:02:48;;;;;;;16.55;14.15;;;18.80;99.90;;;;;;5051494;28;20052;-67
2022/08/23 06:05:14;;;;;;;16.98;15.00;;;18.80;99.90;;;;;;5051652;28;20414;-67
2022/08/23 06:07:40;;;;;;;20.25;16.75;;;18.90;99.90;;;;;;5051410;28;20045;-67
2022/08/23 06:10:07;;;;;;;19.98;15.95;;;18.60;99.90;;;;;;5051016;28;20033;-67
2022/08/23 06:12:33;;;;;;;19.30;17.25;;;18.90;99.90;;;;;;5051263;28;20507;-67
2022/08/23 06:14:59;;;;;;;21.77;16.88;;;19.00;99.90;;;;;;5051415;28;20090;-67
2022/08/23 06:17:25;;;;;;;25.33;16.38;;;19.40;99.90;;;;;;5051350;28;20477;-67
2022/08/23 06:19:50;;;;;;;17.30;15.52;;;19.70;99.90;;;;;;5051222;28;20072;-67
2022/08/23 06:22:17;;;;;;;16.58;13.82;;;19.90;99.90;;;;;;5051186;28;20507;-67
2022/08/23 06:24:43;;;;;;;19.98;15.70;;;20.20;99.90;;;;;;5051262;28;20043;-67
2022/08/23 06:27:10;;;;;;;16.45;13.63;;;20.50;99.90;;;;;;5051332;28;20112;-67
2022/08/23 06:29:37;;;;;;;16.80;13.43;;;20.60;99.90;;;;;;5050964;28;20526;-67
2022/08/23 06:32:03;;;;;;;15.82;13.38;;;20.80;99.90;;;;;;5051174;28;20126;-67
2022/08/23 06:34:32;;;;;;;16.83;14.32;;;20.90;99.90;;;;;;5050077;28;20037;-67
2022/08/23 06:37:00;;;;;;;14.68;13.20;;;21.20;99.90;;;;;;5050789;28;20523;-67
2022/08/23 06:39:27;;;;;;;17.90;13.75;;;21.30;99.90;;;;;;5050719;28;20415;-67
2022/08/23 06:41:59;;;;;;;15.90;12.70;;;21.40;99.90;;;;;;5051077;28;20494;-67
2022/08/23 06:44:26;;;;;;;14.68;12.88;;;21.50;99.90;;;;;;5051120;28;20037;-68
2022/08/23 06:46:52;;;;;;;14.05;11.52;;;21.70;99.90;;;;;;5051010;28;20037;-67
2022/08/23 06:49:18;;;;;;;13.75;12.35;;;21.90;99.90;;;;;;5050846;28;20601;-67
2022/08/23 06:51:48;;;;;;;16.60;12.90;;;22.20;99.90;;;;;;5050928;28;20057;-67
2022/08/23 06:54:15;;;;;;;13.25;11.95;;;22.20;99.90;;;;;;5051292;28;20105;-67
2022/08/23 06:56:42;;;;;;;12.93;11.60;;;22.40;99.90;;;;;;5053438;28;20044;-67
2022/08/23 06:59:08;;;;;;;18.00;12.40;;;22.70;99.90;;;;;;5053625;28;20407;-67
2022/08/23 07:01:39;;;;;;;12.90;11.38;;;22.50;99.70;;;;;;5054538;28;20568;-67
2022/08/23 07:04:07;;;;;;;14.55;11.82;;;22.70;99.50;;;;;;5054617;28;20044;-67
2022/08/23 07:06:33;;;;;;;13.40;10.88;;;22.80;99.20;;;;;;5054339;28;20564;-67
2022/08/23 07:08:59;;;;;;;12.73;10.85;;;23.00;98.60;;;;;;5054882;28;20036;-67
2022/08/23 07:11:26;;;;;;;12.13;9.93;;;23.10;98.30;;;;;;5053060;28;20049;-67
2022/08/23 07:13:52;;;;;;;14.52;10.32;;;23.40;98.00;;;;;;5054629;28;20052;-67
2022/08/23 07:16:18;;;;;;;14.23;11.18;;;23.50;97.50;;;;;;5054490;28;20037;-68
2022/08/23 07:18:44;;;;;;;12.02;10.30;;;23.70;96.90;;;;;;5054381;28;20490;-68
2022/08/23 07:21:11;;;;;;;14.75;10.05;;;23.80;96.70;;;;;;5052728;28;20049;-67
2022/08/23 07:23:38;;;;;;;15.48;10.18;;;24.00;95.60;;;;;;5054511;28;20045;-67
2022/08/23 07:26:10;;;;;;;12.85;10.75;;;24.20;95.10;;;;;;5054193;28;20521;-67
2022/08/23 07:28:36;;;;;;;12.18;10.30;;;24.40;93.90;;;;;;5054033;28;20049;-67
2022/08/23 07:31:15;;;;;;;12.48;11.27;;;24.40;93.70;;;;;;5053629;28;20418;-67
2022/08/23 07:33:42;;;;;;;13.40;11.27;;;24.30;92.80;;;;;;5054225;28;20037;-68
2022/08/23 07:36:08;;;;;;;16.02;10.30;;;24.30;93.10;;;;;;5054111;28;20430;-68
2022/08/23 07:38:35;;;;;;;11.32;10.07;;;24.50;93.00;;;;;;5054044;28;20043;-67
2022/08/23 07:41:02;;;;;;;10.05;8.98;;;24.50;92.60;;;;;;5054050;28;20033;-67
2022/08/23 07:43:30;;;;;;;9.18;8.30;;;24.50;91.90;;;;;;5054590;28;20048;-67
2022/08/23 07:45:55;;;;;;;13.60;9.15;;;24.70;91.40;;;;;;5053705;28;20049;-68
2022/08/23 07:48:21;;;;;;;9.68;8.38;;;25.00;91.50;;;;;;5053964;28;20441;-68
2022/08/23 07:50:54;;;;;;;11.55;8.93;;;25.10;90.60;;;;;;5053187;28;20045;-68
2022/08/23 07:53:20;;;;;;;9.10;8.20;;;25.30;89.90;;;;;;5053904;28;20090;-67
2022/08/23 07:55:46;;;;;;;9.10;7.22;;;25.40;89.40;;;;;;5053743;28;20040;-68
2022/08/23 07:58:11;;;;;;;10.55;7.00;;;25.60;88.50;;;;;;5053588;28;20037;-68
2022/08/23 08:00:37;;;;;;;10.90;7.15;;;25.80;88.00;;;;;;5053358;28;20041;-67
2022/08/23 08:03:03;;;;;;;8.43;6.28;;;25.80;86.50;;;;;;5053813;28;20120;-67
2022/08/23 08:05:32;;;;;;;10.73;6.60;;;25.90;84.80;;;;;;5053429;28;20120;-68
2022/08/23 08:07:58;;;;;;;10.38;6.80;;;26.00;82.30;;;;;;5052490;28;20052;-68
2022/08/23 08:10:24;;;;;;;9.93;7.20;;;26.10;83.60;;;;;;5052932;28;20048;-68
2022/08/23 08:12:50;;;;;;;8.30;5.85;;;26.30;82.40;;;;;;5053440;28;20048;-68
2022/08/23 08:15:16;;;;;;;8.45;5.68;;;26.20;78.90;;;;;;5053323;28;20045;-68
2022/08/23 08:17:42;;;;;;;15.23;5.78;;;26.50;78.60;;;;;;5053310;28;20055;-68
2022/08/23 08:20:08;;;;;;;5.60;5.05;;;26.70;77.50;;;;;;5053161;28;20144;-68
2022/08/23 08:22:34;;;;;;;7.97;4.50;;;26.70;76.30;;;;;;5053403;28;20063;-68
2022/08/23 08:25:00;;;;;;;10.43;5.43;;;26.40;74.80;;;;;;5053093;28;20041;-67
2022/08/23 08:27:26;;;;;;;9.60;5.78;;;26.30;76.00;;;;;;5053056;28;20041;-68
2022/08/23 08:29:51;;;;;;;8.13;5.18;;;26.30;76.10;;;;;;5052619;28;20047;-67
2022/08/23 08:32:17;;;;;;;9.40;6.22;;;26.40;77.60;;;;;;5053224;28;20436;-68
2022/08/23 08:34:42;;;;;;;9.10;6.03;;;26.40;76.10;;;;;;5051704;28;20044;-68
2022/08/23 08:37:08;;;;;;;11.73;4.78;;;26.50;74.10;;;;;;5052919;28;20048;-68
2022/08/23 08:39:34;;;;;;;5.68;5.15;;;26.60;74.60;;;;;;5050936;28;20040;-68
2022/08/23 08:42:21;;;;;;;11.20;5.47;;;26.60;74.00;;;;;;5052185;28;20145;-68
2022/08/23 08:44:56;;;;;;;9.32;6.20;;;26.50;74.00;;;;;;5052823;28;20041;-68
2022/08/23 08:47:44;;;;;;;7.35;5.68;;;26.40;74.00;;;;;;5052469;28;20041;-68
2022/08/23 08:50:48;;;;;;;9.15;5.90;;;26.80;73.70;;;;;;5052424;28;20040;-68
2022/08/23 08:53:33;;;;;;;6.35;4.75;;;27.10;74.20;;;;;;4990800;28;20061;-68
2022/08/23 08:56:05;;;;;;;11.75;5.45;;;27.50;72.60;;;;;;5048879;28;20106;-68
2022/08/23 08:58:53;;;;;;;8.38;4.68;;;27.80;70.90;;;;;;5052965;28;20116;-68
2022/08/23 09:01:21;;;;;;;7.95;4.28;;;27.90;70.20;;;;;;5052457;28;20087;-68
2022/08/23 09:03:47;;;;;;;9.45;4.72;;;28.10;69.90;;;;;;5052575;28;20036;-68
2022/08/23 09:06:22;;;;;;;6.05;3.85;;;28.00;68.10;;;;;;5051153;28;20410;-68
2022/08/23 09:09:17;;;;;;;6.55;4.38;;;28.20;67.30;;;;;;5052362;28;20044;-68
2022/08/23 09:11:59;;;;;;;9.70;4.80;;;28.30;65.40;;;;;;5052184;28;20508;-68
2022/08/23 09:14:44;;;;;;;4.47;3.50;;;28.30;65.60;;;;;;5052482;28;20040;-69
2022/08/23 09:17:43;;;;;;;8.23;4.30;;;28.40;65.30;;;;;;5052224;28;20398;-68
2022/08/23 09:20:13;;;;;;;8.85;3.70;;;28.30;63.40;;;;;;5047939;28;20170;-68
2022/08/23 09:22:42;;;;;;;11.75;4.70;;;28.40;64.20;;;;;;5051176;28;20403;-68
2022/08/23 09:25:10;;;;;;;7.35;3.65;;;28.50;64.60;;;;;;5051888;28;20068;-68
2022/08/23 09:27:37;;;;;;;6.45;3.72;;;28.60;64.10;;;;;;5051955;28;20049;-68
2022/08/23 09:30:04;;;;;;;6.47;3.83;;;28.80;62.80;;;;;;5050412;28;20037;-68
2022/08/23 09:32:42;;;;;;;8.45;4.22;;;28.60;61.20;;;;;;5051717;28;20536;-68
2022/08/23 09:35:11;;;;;;;11.65;4.03;;;28.40;60.90;;;;;;5052016;28;20037;-68
2022/08/23 09:37:46;;;;;;;6.35;3.78;;;28.50;62.70;;;;;;5050536;28;20044;-68
2022/08/23 09:40:19;;;;;;;5.05;3.15;;;28.40;60.80;;;;;;5051550;28;20053;-68
2022/08/23 09:42:46;;;;;;;6.05;3.92;;;28.30;60.30;;;;;;5051782;28;20041;-68
2022/08/23 09:45:25;;;;;;;5.65;2.85;;;28.30;61.50;;;;;;5052202;28;20454;-68
2022/08/23 09:47:51;;;;;;;7.78;3.90;;;28.40;58.40;;;;;;5051554;28;20110;-69
2022/08/23 09:50:25;;;;;;;7.25;3.90;;;28.40;60.00;;;;;;5050972;28;20483;-68
2022/08/23 09:52:57;;;;;;;6.30;3.70;;;28.40;59.50;;;;;;5051424;28;20090;-68
2022/08/23 09:55:35;;;;;;;8.15;3.65;;;28.10;58.90;;;;;;5051417;28;20754;-68
2022/08/23 09:58:05;;;;;;;7.25;3.50;;;28.10;60.20;;;;;;5051384;28;20036;-69
2022/08/23 10:00:34;;;;;;;9.05;4.05;;;28.10;60.90;;;;;;5050360;28;20473;-69
2022/08/23 10:03:26;;;;;;;8.40;4.03;;;28.20;61.00;;;;;;5051457;28;20108;-68
2022/08/23 10:05:59;;;;;;;9.35;4.13;;;28.20;60.30;;;;;;5049904;28;20051;-68
2022/08/23 10:08:32;;;;;;;8.27;4.20;;;28.30;61.20;;;;;;5049185;28;20041;-68
2022/08/23 10:11:17;;;;;;;;;;;28.20;60.30;;;;;;5051521;28;20043;-68
2022/08/23 10:13:43;;;;;;;9.05;4.53;;;28.00;58.00;;;;;;5051106;28;19948;-69
2022/08/23 10:16:25;;;;;;;9.05;5.07;;;27.80;59.70;;;;;;5051212;28;20045;-68
2022/08/23 10:19:09;;;;;;;7.43;5.55;;;27.80;58.60;;;;;;5051608;28;20119;-69
2022/08/23 10:21:49;;;;;;;9.05;5.18;;;27.70;59.10;;;;;;5051286;28;20059;-69
2022/08/23 10:24:18;;;;;;;10.70;5.90;;;27.70;59.40;;;;;;5050454;28;20052;-68
2022/08/23 10:26:58;;;;;;;9.40;5.70;;;27.60;59.90;;;;;;5051261;28;20045;-68
2022/08/23 10:29:37;;;;;;;7.35;5.43;;;27.50;58.10;;;;;;5051243;28;20394;-68
2022/08/23 10:32:28;;;;;;;5.95;4.25;;;27.60;58.80;;;;;;5054246;28;20499;-69
2022/08/23 10:35:18;;;;;;;5.40;4.88;;;27.60;58.00;;;;;;5055319;28;20047;-68
2022/08/23 10:37:55;;;;;;;5.60;4.50;;;27.70;57.80;;;;;;5055047;28;20120;-69
2022/08/23 10:40:48;;;;;;;7.25;5.68;;;27.90;57.90;;;;;;5053647;28;20052;-69
2022/08/23 10:43:30;;;;;;;7.90;4.65;;;27.80;56.80;;;;;;5054804;28;20056;-69
2022/08/23 10:45:59;;;;;;;;;;;27.80;57.50;;;;;;5055538;28;20041;-69
2022/08/23 10:48:29;;;;;;;5.63;4.45;;;27.60;57.20;;;;;;5055035;28;19917;-69
2022/08/23 10:51:08;;;;;;;6.72;4.55;;;27.90;57.90;;;;;;5054646;28;20098;-69
2022/08/23 10:53:46;;;;;;;8.43;3.55;;;27.90;57.30;;;;;;5054788;28;20037;-68
2022/08/23 10:56:19;;;;;;;5.43;3.83;;;28.20;58.10;;;;;;5054810;28;20156;-69
2022/08/23 10:59:00;;;;;;;5.95;4.45;;;28.10;56.70;;;;;;5054606;28;20073;-69
2022/08/23 11:01:56;;;;;;;6.78;4.65;;;28.10;57.20;;;;;;5053223;28;20112;-68
2022/08/23 11:04:43;;;;;;;8.40;3.78;;;28.00;57.10;;;;;;5053614;28;20564;-69
2022/08/23 11:07:19;;;;;;;9.48;3.28;;;28.10;56.30;;;;;;5053131;28;20043;-69
2022/08/23 11:10:12;;;;;;;5.13;3.13;;;28.10;57.60;;;;;;5049746;28;20413;-69
2022/08/23 11:12:52;;;;;;;7.82;3.70;;;28.30;56.20;;;;;;5052210;28;20048;-69
2022/08/23 11:15:26;;;;;;;7.13;3.70;;;28.10;56.70;;;;;;5052691;28;20036;-69
2022/08/23 11:18:32;;;;;;;8.75;3.97;;;28.20;55.90;;;;;;5050691;28;20457;-69
2022/08/23 11:21:03;;;;;;;7.38;3.83;;;28.30;55.60;;;;;;5053409;28;20041;-69
2022/08/23 11:23:39;;;;;;;6.28;4.05;;;28.30;57.30;;;;;;5054930;28;20040;-70
2022/08/23 11:26:11;;;;;;;7.80;3.45;;;28.30;57.00;;;;;;5054567;28;20128;-68
2022/08/23 11:28:40;;;;;;;6.82;3.65;;;28.40;58.00;;;;;;5054274;28;20512;-70
2022/08/23 11:31:30;;;;;;;6.22;3.70;;;28.30;56.80;;;;;;5053732;28;20447;-69
2022/08/23 11:34:07;;;;;;;6.70;3.80;;;28.20;56.00;;;;;;5054545;28;20111;-69
2022/08/23 11:36:35;;;;;;;6.68;3.10;;;28.20;56.00;;;;;;5054396;28;20056;-70
2022/08/23 11:39:10;;;;;;;5.70;3.05;;;28.30;56.50;;;;;;5052777;28;20037;-71
2022/08/23 11:42:00;;;;;;;7.63;3.33;;;28.20;57.10;;;;;;5052174;28;20060;-72
2022/08/23 11:44:40;;;;;;;10.02;2.97;;;28.30;57.10;;;;;;5053825;28;20040;-72
2022/08/23 11:47:09;;;;;;;9.00;3.70;;;28.20;56.10;;;;;;5052791;28;20180;-72
2022/08/23 11:50:08;;;;;;;6.30;2.45;;;28.20;55.70;;;;;;5053397;28;20044;-72
2022/08/23 11:52:47;;;;;;;5.85;2.10;;;28.30;55.30;;;;;;5052635;28;20049;-72
2022/08/23 11:55:48;;;;;;;3.20;2.40;;;28.40;54.20;;;;;;5053900;28;20037;-72
2022/08/23 11:58:42;;;;;;;5.90;2.17;;;28.40;51.80;;;;;;5053659;28;20055;-71
2022/08/23 12:01:11;;;;;;;6.10;2.47;;;28.30;51.20;;;;;;5052168;28;20040;-71
2022/08/23 12:03:58;;;;;;;4.22;2.38;;;28.30;52.30;;;;;;5053577;28;20037;-72
2022/08/23 12:06:38;;;;;;;6.60;2.63;;;28.30;53.40;;;;;;5053819;28;20036;-72
2022/08/23 12:09:19;;;;;;;3.58;2.60;;;28.40;53.00;;;;;;5053580;28;20090;-71
2022/08/23 12:11:54;;;;;;;6.00;2.42;;;28.40;54.40;;;;;;5052381;28;20407;-72
2022/08/23 12:14:41;;;;;;;4.97;2.67;;;28.40;56.20;;;;;;5052376;28;20099;-71
2022/08/23 12:17:17;;;;;;;6.80;2.47;;;28.30;55.40;;;;;;5053344;28;20090;-72
2022/08/23 12:19:47;;;;;;;8.75;2.30;;;28.30;54.60;;;;;;5051860;28;20076;-72
2022/08/23 12:22:21;;;;;;;5.43;2.63;;;28.30;55.50;;;;;;5053415;28;20040;-72
2022/08/23 12:24:51;;;;;;;6.40;2.60;;;28.30;54.70;;;;;;5053313;28;20037;-71
2022/08/23 12:27:50;;;;;;;6.28;2.58;;;28.30;53.40;;;;;;5053069;28;20059;-72
2022/08/23 12:30:29;;;;;;;7.88;2.63;;;28.40;54.20;;;;;;5051536;28;20068;-72
2022/08/23 12:33:17;;;;;;;5.07;3.00;;;28.40;53.10;;;;;;5052114;28;20138;-71
2022/08/23 12:36:07;;;;;;;6.93;2.65;;;28.30;53.30;;;;;;5052938;28;20029;-71
2022/08/23 12:38:53;;;;;;;6.68;2.65;;;28.30;53.60;;;;;;5053166;28;20136;-71
2022/08/23 12:41:48;;;;;;;4.53;2.75;;;28.30;53.70;;;;;;5052695;28;20052;-71
2022/08/23 12:44:19;;;;;;;6.38;2.55;;;28.50;54.40;;;;;;5051868;28;20389;-72
2022/08/23 12:46:47;;;;;;;5.57;2.42;;;28.50;55.50;;;;;;5051468;28;20059;-71
2022/08/23 12:49:32;;;;;;;7.65;2.90;;;28.60;54.80;;;;;;5052534;28;20041;-71
2022/08/23 12:52:00;;;;;;;4.70;2.75;;;28.60;54.00;;;;;;5053231;28;20128;-72
2022/08/23 12:54:37;;;;;;;6.78;2.50;;;28.70;54.00;;;;;;5052067;28;20040;-72
2022/08/23 12:57:10;;;;;;;7.07;2.67;;;28.80;53.70;;;;;;5051714;28;20052;-72
2022/08/23 12:59:57;;;;;;;;;;;28.90;53.80;;;;;;5052991;28;20080;-71
2022/08/23 13:02:26;;;;;;;4.30;2.38;;;28.70;53.30;;;;;;5051603;28;19916;-72
2022/08/23 13:04:55;;;;;;;5.20;2.70;;;28.60;53.00;;;;;;5051351;28;20568;-71
2022/08/23 13:07:22;;;;;;;6.88;2.75;;;28.60;53.10;;;;;;5052595;28;20076;-71